Charlottesville Albemarle Airport
KCHO : now visible

Airfield :











YOU CAN JOIN US ON...

 
LOGIN :

Register | Disclaimer

   EN    FR    IT 

 









Legend :    VFR   Marginal VFR   IFR   Intensive IFR   Very Intensive IFR
Visi :
Ceiling :
>= 8 km
>= 3000ft
5 to 8 km
1000 to 3000 ft
1500m to 5 km
500 to 1000 ft
800 to 1500m
200 to 500 ft
< 800m
< 200 ft
Symbols :   Thunderstorms  Fog  Heavy snow  Heavy precipitations  Wind > 20 kt






- Airport Elevation : 639 ft
- IATA code : CHO


KCHO - Charlottesville Albemarle

CURRENT METAR :
  • 172253Z 28006G17KT 10SM CLR 02/M09 A2957 RMK AO2 SLP016 T00171094

EXPIRED METARs :
  • 172153Z 29009G15KT 260V340 10SM FEW120 02/M11 A2954 RMK AO2 SLP006 T00221106
  • 172053Z 29008KT 10SM OVC110 03/M13 A2951 RMK AO2 SLP995 T00281133 53051

TAF KCHO
Valid from the 17 at 21:00 until the 18 at 18:00 UTC


172109Z 1721/1818 27014G21KT P6SM OVC110
FM180000 27013G27KT P6SM SCT040 BKN200
FM180100 26012G25KT P6SM SCT140 BKN200
FM180200 27012G24KT P6SM FEW200 SCT250
FM180500 26009KT P6SM FEW250
FM181200 23006KT P6SM FEW250
KZDC FIR / North America



MET'MAP, your aeronautical weather chart ! - Copyright ORBIFLY December 2007 - Disclaimer

ORBIFLY MET'MAP TEAM :

Programming & Development : Alexandra Zaïnal
Concept & original design : Baudouin d'Aumeries
Assistance for programming : Marc-Olivier Méhu
Technical & hardware support : Manuel Goepfert

Contact : metmap@orbifly.com




SOURCES & CREDITS :

   NOAA       Earth
Advisory